sensor_id;sensor_type;location;lat;lon;timestamp;temperature;humidity
6738;DHT22;3406;49.902;8.596;2022-10-16T00:01:33;16.70;99.90
6738;DHT22;3406;49.902;8.596;2022-10-16T00:04:01;16.70;99.90
6738;DHT22;3406;49.902;8.596;2022-10-16T00:06:29;16.80;99.90
6738;DHT22;3406;49.902;8.596;2022-10-16T00:08:57;16.80;99.90
6738;DHT22;3406;49.902;8.596;2022-10-16T00:11:25;16.80;99.90
6738;DHT22;3406;49.902;8.596;2022-10-16T00:13:57;16.80;99.90
6738;DHT22;3406;49.902;8.596;2022-10-16T00:16:25;16.80;99.90
6738;DHT22;3406;49.902;8.596;2022-10-16T00:18:52;16.80;99.90
6738;DHT22;3406;49.902;8.596;2022-10-16T00:21:20;16.80;99.90
6738;DHT22;3406;49.902;8.596;2022-10-16T00:23:50;16.70;99.90
6738;DHT22;3406;49.902;8.596;2022-10-16T00:26:19;16.80;99.90
6738;DHT22;3406;49.902;8.596;2022-10-16T00:28:47;16.70;99.90
6738;DHT22;3406;49.902;8.596;2022-10-16T00:31:15;16.70;99.90
6738;DHT22;3406;49.902;8.596;2022-10-16T00:33:42;16.70;99.90
6738;DHT22;3406;49.902;8.596;2022-10-16T00:36:12;16.70;99.90
6738;DHT22;3406;49.902;8.596;2022-10-16T00:38:39;16.70;99.90
6738;DHT22;3406;49.902;8.596;2022-10-16T00:41:06;16.70;99.90
6738;DHT22;3406;49.902;8.596;2022-10-16T00:43:37;16.70;99.90
6738;DHT22;3406;49.902;8.596;2022-10-16T00:46:10;16.70;99.90
6738;DHT22;3406;49.902;8.596;2022-10-16T00:48:39;16.70;99.90
6738;DHT22;3406;49.902;8.596;2022-10-16T00:51:07;16.70;99.90
6738;DHT22;3406;49.902;8.596;2022-10-16T00:53:34;16.70;99.90
6738;DHT22;3406;49.902;8.596;2022-10-16T00:56:02;16.70;99.90
6738;DHT22;3406;49.902;8.596;2022-10-16T00:58:29;16.70;99.90
6738;DHT22;3406;49.902;8.596;2022-10-16T01:00:57;16.70;99.90
6738;DHT22;3406;49.902;8.596;2022-10-16T01:03:26;16.60;99.90
6738;DHT22;3406;49.902;8.596;2022-10-16T01:06:01;16.60;99.90
6738;DHT22;3406;49.902;8.596;2022-10-16T01:08:39;16.60;99.90
6738;DHT22;3406;49.902;8.596;2022-10-16T01:11:13;16.60;99.90
6738;DHT22;3406;49.902;8.596;2022-10-16T01:13:48;16.50;99.90
6738;DHT22;3406;49.902;8.596;2022-10-16T01:16:22;16.50;99.90
6738;DHT22;3406;49.902;8.596;2022-10-16T01:18:56;16.50;99.90
6738;DHT22;3406;49.902;8.596;2022-10-16T01:21:27;16.50;99.90
6738;DHT22;3406;49.902;8.596;2022-10-16T01:24:02;16.50;99.90
6738;DHT22;3406;49.902;8.596;2022-10-16T01:26:42;16.50;99.90
6738;DHT22;3406;49.902;8.596;2022-10-16T01:29:16;16.50;99.90
6738;DHT22;3406;49.902;8.596;2022-10-16T01:31:47;16.50;99.90
6738;DHT22;3406;49.902;8.596;2022-10-16T01:34:16;16.50;99.90
6738;DHT22;3406;49.902;8.596;2022-10-16T01:36:47;16.50;99.90
6738;DHT22;3406;49.902;8.596;2022-10-16T01:39:19;16.50;99.90
6738;DHT22;3406;49.902;8.596;2022-10-16T01:41:51;16.50;99.90
6738;DHT22;3406;49.902;8.596;2022-10-16T01:44:24;16.50;99.90
6738;DHT22;3406;49.902;8.596;2022-10-16T01:46:53;16.40;99.90
6738;DHT22;3406;49.902;8.596;2022-10-16T01:49:21;16.40;99.90
6738;DHT22;3406;49.902;8.596;2022-10-16T01:51:52;16.40;99.90
6738;DHT22;3406;49.902;8.596;2022-10-16T01:54:20;16.50;99.90
6738;DHT22;3406;49.902;8.596;2022-10-16T01:56:50;16.40;99.90
6738;DHT22;3406;49.902;8.596;2022-10-16T01:59:21;16.50;99.90
6738;DHT22;3406;49.902;8.596;2022-10-16T02:01:52;16.50;99.90
6738;DHT22;3406;49.902;8.596;2022-10-16T02:04:24;16.40;99.90
6738;DHT22;3406;49.902;8.596;2022-10-16T02:06:53;16.50;99.90
6738;DHT22;3406;49.902;8.596;2022-10-16T02:09:20;16.50;99.90
6738;DHT22;3406;49.902;8.596;2022-10-16T02:11:46;16.50;99.90
6738;DHT22;3406;49.902;8.596;2022-10-16T02:14:14;16.50;99.90
6738;DHT22;3406;49.902;8.596;2022-10-16T02:16:44;16.50;99.90
6738;DHT22;3406;49.902;8.596;2022-10-16T02:19:12;16.50;99.90
6738;DHT22;3406;49.902;8.596;2022-10-16T02:21:42;16.50;99.90
6738;DHT22;3406;49.902;8.596;2022-10-16T02:24:14;16.50;99.90
6738;DHT22;3406;49.902;8.596;2022-10-16T02:26:48;16.50;99.90
6738;DHT22;3406;49.902;8.596;2022-10-16T02:29:18;16.60;99.90
6738;DHT22;3406;49.902;8.596;2022-10-16T02:31:50;16.50;99.90
6738;DHT22;3406;49.902;8.596;2022-10-16T02:34:18;16.50;99.90
6738;DHT22;3406;49.902;8.596;2022-10-16T02:36:48;16.60;99.90
6738;DHT22;3406;49.902;8.596;2022-10-16T02:39:16;16.60;99.90
6738;DHT22;3406;49.902;8.596;2022-10-16T02:41:44;16.60;99.90
6738;DHT22;3406;49.902;8.596;2022-10-16T02:44:10;16.60;99.90
6738;DHT22;3406;49.902;8.596;2022-10-16T02:46:37;16.60;99.90
6738;DHT22;3406;49.902;8.596;2022-10-16T02:49:05;16.60;99.90
6738;DHT22;3406;49.902;8.596;2022-10-16T02:51:32;16.60;99.90
6738;DHT22;3406;49.902;8.596;2022-10-16T02:53:58;16.60;99.90
6738;DHT22;3406;49.902;8.596;2022-10-16T02:56:25;16.60;99.90
6738;DHT22;3406;49.902;8.596;2022-10-16T02:58:52;16.60;99.90
6738;DHT22;3406;49.902;8.596;2022-10-16T03:01:18;16.70;99.90
6738;DHT22;3406;49.902;8.596;2022-10-16T03:03:45;16.70;99.90
6738;DHT22;3406;49.902;8.596;2022-10-16T03:06:13;16.70;99.90
6738;DHT22;3406;49.902;8.596;2022-10-16T03:08:39;16.70;99.90
6738;DHT22;3406;49.902;8.596;2022-10-16T03:11:06;16.70;99.90
6738;DHT22;3406;49.902;8.596;2022-10-16T03:13:33;16.70;99.90
6738;DHT22;3406;49.902;8.596;2022-10-16T03:16:00;16.70;99.90
6738;DHT22;3406;49.902;8.596;2022-10-16T03:18:26;16.70;99.90
6738;DHT22;3406;49.902;8.596;2022-10-16T03:20:53;16.70;99.90
6738;DHT22;3406;49.902;8.596;2022-10-16T03:23:21;16.70;99.90
6738;DHT22;3406;49.902;8.596;2022-10-16T03:25:48;16.70;99.90
6738;DHT22;3406;49.902;8.596;2022-10-16T03:28:14;16.70;99.90
6738;DHT22;3406;49.902;8.596;2022-10-16T03:30:42;16.70;99.90
6738;DHT22;3406;49.902;8.596;2022-10-16T03:33:09;16.80;99.90
6738;DHT22;3406;49.902;8.596;2022-10-16T03:35:35;16.80;99.90
6738;DHT22;3406;49.902;8.596;2022-10-16T03:38:02;16.70;99.90
6738;DHT22;3406;49.902;8.596;2022-10-16T03:40:30;16.70;99.90
6738;DHT22;3406;49.902;8.596;2022-10-16T03:42:57;16.70;99.90
6738;DHT22;3406;49.902;8.596;2022-10-16T03:45:24;16.80;99.90
6738;DHT22;3406;49.902;8.596;2022-10-16T03:47:51;16.80;99.90
6738;DHT22;3406;49.902;8.596;2022-10-16T03:50:18;16.80;99.90
6738;DHT22;3406;49.902;8.596;2022-10-16T03:52:44;16.80;99.90
6738;DHT22;3406;49.902;8.596;2022-10-16T03:55:11;16.80;99.90
6738;DHT22;3406;49.902;8.596;2022-10-16T03:57:39;16.80;99.90
6738;DHT22;3406;49.902;8.596;2022-10-16T04:00:07;16.80;99.90
6738;DHT22;3406;49.902;8.596;2022-10-16T04:02:33;16.80;99.90
6738;DHT22;3406;49.902;8.596;2022-10-16T04:05:00;16.80;99.90
6738;DHT22;3406;49.902;8.596;2022-10-16T04:07:27;16.80;99.90
6738;DHT22;3406;49.902;8.596;2022-10-16T04:09:54;16.80;99.90
6738;DHT22;3406;49.902;8.596;2022-10-16T04:12:22;16.80;99.90
6738;DHT22;3406;49.902;8.596;2022-10-16T04:14:50;16.80;99.90
6738;DHT22;3406;49.902;8.596;2022-10-16T04:17:17;16.90;99.90
6738;DHT22;3406;49.902;8.596;2022-10-16T04:19:43;16.90;99.90
6738;DHT22;3406;49.902;8.596;2022-10-16T04:22:11;16.80;99.90
6738;DHT22;3406;49.902;8.596;2022-10-16T04:24:38;16.80;99.90
6738;DHT22;3406;49.902;8.596;2022-10-16T04:27:05;16.80;99.90
6738;DHT22;3406;49.902;8.596;2022-10-16T04:29:31;16.80;99.90
6738;DHT22;3406;49.902;8.596;2022-10-16T04:31:59;16.80;99.90
6738;DHT22;3406;49.902;8.596;2022-10-16T04:34:26;16.80;99.90
6738;DHT22;3406;49.902;8.596;2022-10-16T04:36:52;16.80;99.90
6738;DHT22;3406;49.902;8.596;2022-10-16T04:39:19;16.90;99.90
6738;DHT22;3406;49.902;8.596;2022-10-16T04:41:46;16.90;99.90
6738;DHT22;3406;49.902;8.596;2022-10-16T04:44:13;16.90;99.90
6738;DHT22;3406;49.902;8.596;2022-10-16T04:46:39;16.90;99.90
6738;DHT22;3406;49.902;8.596;2022-10-16T04:49:07;16.90;99.90
6738;DHT22;3406;49.902;8.596;2022-10-16T04:51:34;16.90;99.90
6738;DHT22;3406;49.902;8.596;2022-10-16T04:54:01;16.80;99.90
6738;DHT22;3406;49.902;8.596;2022-10-16T04:56:28;16.80;99.90
6738;DHT22;3406;49.902;8.596;2022-10-16T04:58:54;16.90;99.90
6738;DHT22;3406;49.902;8.596;2022-10-16T05:01:21;16.90;99.90
6738;DHT22;3406;49.902;8.596;2022-10-16T05:03:48;16.80;99.90
6738;DHT22;3406;49.902;8.596;2022-10-16T05:06:16;16.80;99.90
6738;DHT22;3406;49.902;8.596;2022-10-16T05:08:42;16.80;99.90
6738;DHT22;3406;49.902;8.596;2022-10-16T05:11:09;16.80;99.90
6738;DHT22;3406;49.902;8.596;2022-10-16T05:13:35;16.80;99.90
6738;DHT22;3406;49.902;8.596;2022-10-16T05:16:02;16.80;99.90
6738;DHT22;3406;49.902;8.596;2022-10-16T05:18:29;16.80;99.90
6738;DHT22;3406;49.902;8.596;2022-10-16T05:20:56;16.80;99.90
6738;DHT22;3406;49.902;8.596;2022-10-16T05:23:24;16.80;99.90
6738;DHT22;3406;49.902;8.596;2022-10-16T05:25:54;16.80;99.90
6738;DHT22;3406;49.902;8.596;2022-10-16T05:28:23;16.80;99.90
6738;DHT22;3406;49.902;8.596;2022-10-16T05:30:50;16.80;99.90
6738;DHT22;3406;49.902;8.596;2022-10-16T05:33:19;16.80;99.90
6738;DHT22;3406;49.902;8.596;2022-10-16T05:35:46;16.80;99.90
6738;DHT22;3406;49.902;8.596;2022-10-16T05:38:12;16.80;99.90
6738;DHT22;3406;49.902;8.596;2022-10-16T05:40:40;16.80;99.90
6738;DHT22;3406;49.902;8.596;2022-10-16T05:43:07;16.80;99.90
6738;DHT22;3406;49.902;8.596;2022-10-16T05:45:34;16.90;99.90
6738;DHT22;3406;49.902;8.596;2022-10-16T05:48:00;16.80;99.90
6738;DHT22;3406;49.902;8.596;2022-10-16T05:50:27;16.80;99.90
6738;DHT22;3406;49.902;8.596;2022-10-16T05:52:54;16.80;99.90
6738;DHT22;3406;49.902;8.596;2022-10-16T05:55:20;16.80;99.90
6738;DHT22;3406;49.902;8.596;2022-10-16T05:57:49;16.80;99.90
6738;DHT22;3406;49.902;8.596;2022-10-16T06:00:15;16.70;99.90
6738;DHT22;3406;49.902;8.596;2022-10-16T06:02:42;16.70;99.90
6738;DHT22;3406;49.902;8.596;2022-10-16T06:05:09;16.70;99.90
6738;DHT22;3406;49.902;8.596;2022-10-16T06:07:36;16.70;99.90
6738;DHT22;3406;49.902;8.596;2022-10-16T06:10:03;16.70;99.90
6738;DHT22;3406;49.902;8.596;2022-10-16T06:12:30;16.70;99.90
6738;DHT22;3406;49.902;8.596;2022-10-16T06:14:58;16.70;99.90
6738;DHT22;3406;49.902;8.596;2022-10-16T06:17:25;16.70;99.90
6738;DHT22;3406;49.902;8.596;2022-10-16T06:19:51;16.70;99.90
6738;DHT22;3406;49.902;8.596;2022-10-16T06:22:18;16.70;99.90
6738;DHT22;3406;49.902;8.596;2022-10-16T06:24:45;16.70;99.90
6738;DHT22;3406;49.902;8.596;2022-10-16T06:27:13;16.70;99.90
6738;DHT22;3406;49.902;8.596;2022-10-16T06:29:39;16.70;99.90
6738;DHT22;3406;49.902;8.596;2022-10-16T06:32:07;16.70;99.90
6738;DHT22;3406;49.902;8.596;2022-10-16T06:34:35;16.80;99.90
6738;DHT22;3406;49.902;8.596;2022-10-16T06:37:01;16.80;99.90
6738;DHT22;3406;49.902;8.596;2022-10-16T06:39:28;16.80;99.90
6738;DHT22;3406;49.902;8.596;2022-10-16T06:41:55;16.90;99.90
6738;DHT22;3406;49.902;8.596;2022-10-16T06:44:21;16.90;99.90
6738;DHT22;3406;49.902;8.596;2022-10-16T06:46:48;16.90;99.90
6738;DHT22;3406;49.902;8.596;2022-10-16T06:49:16;16.90;99.90
6738;DHT22;3406;49.902;8.596;2022-10-16T06:51:47;17.00;99.90
6738;DHT22;3406;49.902;8.596;2022-10-16T06:54:15;17.00;99.90
6738;DHT22;3406;49.902;8.596;2022-10-16T06:56:41;17.00;99.90
6738;DHT22;3406;49.902;8.596;2022-10-16T06:59:08;17.10;99.90
6738;DHT22;3406;49.902;8.596;2022-10-16T07:01:34;17.10;99.90
6738;DHT22;3406;49.902;8.596;2022-10-16T07:04:02;17.10;99.90
6738;DHT22;3406;49.902;8.596;2022-10-16T07:06:32;17.10;99.90
6738;DHT22;3406;49.902;8.596;2022-10-16T07:09:02;17.10;99.90
6738;DHT22;3406;49.902;8.596;2022-10-16T07:11:28;17.10;99.90
6738;DHT22;3406;49.902;8.596;2022-10-16T07:13:55;17.00;99.90
6738;DHT22;3406;49.902;8.596;2022-10-16T07:16:23;17.10;99.90
6738;DHT22;3406;49.902;8.596;2022-10-16T07:18:50;17.10;99.90
6738;DHT22;3406;49.902;8.596;2022-10-16T07:21:23;17.10;99.90
6738;DHT22;3406;49.902;8.596;2022-10-16T07:23:52;17.10;99.90
6738;DHT22;3406;49.902;8.596;2022-10-16T07:26:19;17.10;99.90
6738;DHT22;3406;49.902;8.596;2022-10-16T07:28:46;17.10;99.90
6738;DHT22;3406;49.902;8.596;2022-10-16T07:31:15;17.20;99.90
6738;DHT22;3406;49.902;8.596;2022-10-16T07:33:43;17.20;99.90
6738;DHT22;3406;49.902;8.596;2022-10-16T07:36:11;17.20;99.90
6738;DHT22;3406;49.902;8.596;2022-10-16T07:38:38;17.20;99.90
6738;DHT22;3406;49.902;8.596;2022-10-16T07:41:07;17.20;99.90
6738;DHT22;3406;49.902;8.596;2022-10-16T07:43:35;17.30;99.90
6738;DHT22;3406;49.902;8.596;2022-10-16T07:46:02;17.30;99.90
6738;DHT22;3406;49.902;8.596;2022-10-16T07:48:30;17.30;99.90
6738;DHT22;3406;49.902;8.596;2022-10-16T07:50:57;17.30;99.90
6738;DHT22;3406;49.902;8.596;2022-10-16T07:53:25;17.40;99.90
6738;DHT22;3406;49.902;8.596;2022-10-16T07:55:54;17.40;99.90
6738;DHT22;3406;49.902;8.596;2022-10-16T07:58:24;17.40;99.90
6738;DHT22;3406;49.902;8.596;2022-10-16T08:00:51;17.50;99.90
6738;DHT22;3406;49.902;8.596;2022-10-16T08:03:18;17.50;99.90
6738;DHT22;3406;49.902;8.596;2022-10-16T08:05:45;17.50;99.90
6738;DHT22;3406;49.902;8.596;2022-10-16T08:08:13;17.60;99.90
6738;DHT22;3406;49.902;8.596;2022-10-16T08:10:40;17.60;99.90
6738;DHT22;3406;49.902;8.596;2022-10-16T08:13:07;17.60;99.90
6738;DHT22;3406;49.902;8.596;2022-10-16T08:15:35;17.60;99.90
6738;DHT22;3406;49.902;8.596;2022-10-16T08:18:04;17.60;99.90
6738;DHT22;3406;49.902;8.596;2022-10-16T08:20:32;17.60;99.90
6738;DHT22;3406;49.902;8.596;2022-10-16T08:22:59;17.60;99.90
6738;DHT22;3406;49.902;8.596;2022-10-16T08:25:26;17.60;99.90
6738;DHT22;3406;49.902;8.596;2022-10-16T08:27:53;17.60;99.90
6738;DHT22;3406;49.902;8.596;2022-10-16T08:30:21;17.60;99.90
6738;DHT22;3406;49.902;8.596;2022-10-16T08:32:49;17.60;99.90
6738;DHT22;3406;49.902;8.596;2022-10-16T08:35:16;17.50;99.90
6738;DHT22;3406;49.902;8.596;2022-10-16T08:37:43;17.50;99.90
6738;DHT22;3406;49.902;8.596;2022-10-16T08:40:17;17.50;99.90
6738;DHT22;3406;49.902;8.596;2022-10-16T08:42:57;17.50;99.90
6738;DHT22;3406;49.902;8.596;2022-10-16T08:45:34;17.40;99.90
6738;DHT22;3406;49.902;8.596;2022-10-16T08:48:15;17.40;99.90
6738;DHT22;3406;49.902;8.596;2022-10-16T08:50:43;17.40;99.90
6738;DHT22;3406;49.902;8.596;2022-10-16T08:53:15;17.40;99.90
6738;DHT22;3406;49.902;8.596;2022-10-16T08:55:46;17.40;99.90
6738;DHT22;3406;49.902;8.596;2022-10-16T08:58:16;17.50;99.90
6738;DHT22;3406;49.902;8.596;2022-10-16T09:00:46;17.40;99.90
6738;DHT22;3406;49.902;8.596;2022-10-16T09:03:22;17.50;99.90
6738;DHT22;3406;49.902;8.596;2022-10-16T09:06:02;17.50;99.90
6738;DHT22;3406;49.902;8.596;2022-10-16T09:08:41;17.50;99.90
6738;DHT22;3406;49.902;8.596;2022-10-16T09:11:14;17.50;99.90
6738;DHT22;3406;49.902;8.596;2022-10-16T09:13:48;17.50;99.90
6738;DHT22;3406;49.902;8.596;2022-10-16T09:16:19;17.50;99.90
6738;DHT22;3406;49.902;8.596;2022-10-16T09:18:54;17.50;99.90
6738;DHT22;3406;49.902;8.596;2022-10-16T09:21:24;17.60;99.90
6738;DHT22;3406;49.902;8.596;2022-10-16T09:23:54;17.60;99.90
6738;DHT22;3406;49.902;8.596;2022-10-16T09:26:20;17.60;99.90
6738;DHT22;3406;49.902;8.596;2022-10-16T09:28:47;17.70;99.90
6738;DHT22;3406;49.902;8.596;2022-10-16T09:31:19;17.70;99.90
6738;DHT22;3406;49.902;8.596;2022-10-16T09:33:52;17.70;99.90
6738;DHT22;3406;49.902;8.596;2022-10-16T09:36:20;17.70;99.90
6738;DHT22;3406;49.902;8.596;2022-10-16T09:38:46;17.70;99.90
6738;DHT22;3406;49.902;8.596;2022-10-16T09:41:18;17.80;99.90
6738;DHT22;3406;49.902;8.596;2022-10-16T09:43:52;17.90;99.90
6738;DHT22;3406;49.902;8.596;2022-10-16T09:46:24;18.10;99.90
6738;DHT22;3406;49.902;8.596;2022-10-16T09:48:55;18.20;99.90
6738;DHT22;3406;49.902;8.596;2022-10-16T09:51:24;18.20;99.90
6738;DHT22;3406;49.902;8.596;2022-10-16T09:53:55;18.40;99.90
6738;DHT22;3406;49.902;8.596;2022-10-16T09:56:24;18.40;99.90
6738;DHT22;3406;49.902;8.596;2022-10-16T09:58:52;18.50;99.90
6738;DHT22;3406;49.902;8.596;2022-10-16T10:01:20;18.60;99.90
6738;DHT22;3406;49.902;8.596;2022-10-16T10:03:49;18.60;99.90
6738;DHT22;3406;49.902;8.596;2022-10-16T10:06:22;18.70;99.90
6738;DHT22;3406;49.902;8.596;2022-10-16T10:08:54;18.80;99.90
6738;DHT22;3406;49.902;8.596;2022-10-16T10:11:37;18.80;99.90
6738;DHT22;3406;49.902;8.596;2022-10-16T10:14:04;18.80;99.90
6738;DHT22;3406;49.902;8.596;2022-10-16T10:16:31;18.90;99.90
6738;DHT22;3406;49.902;8.596;2022-10-16T10:18:58;19.00;99.90
6738;DHT22;3406;49.902;8.596;2022-10-16T10:21:26;19.10;99.90
6738;DHT22;3406;49.902;8.596;2022-10-16T10:23:55;19.20;99.90
6738;DHT22;3406;49.902;8.596;2022-10-16T10:26:24;19.40;99.90
6738;DHT22;3406;49.902;8.596;2022-10-16T10:28:59;19.50;99.90
6738;DHT22;3406;49.902;8.596;2022-10-16T10:31:34;19.50;99.90
6738;DHT22;3406;49.902;8.596;2022-10-16T10:34:16;19.60;99.90
6738;DHT22;3406;49.902;8.596;2022-10-16T10:36:53;19.60;99.90
6738;DHT22;3406;49.902;8.596;2022-10-16T10:39:27;19.70;99.90
6738;DHT22;3406;49.902;8.596;2022-10-16T10:42:04;19.70;99.90
6738;DHT22;3406;49.902;8.596;2022-10-16T10:44:52;19.80;99.90
6738;DHT22;3406;49.902;8.596;2022-10-16T10:47:28;19.80;99.90
6738;DHT22;3406;49.902;8.596;2022-10-16T10:50:05;19.80;99.90
6738;DHT22;3406;49.902;8.596;2022-10-16T10:52:43;19.90;99.90
6738;DHT22;3406;49.902;8.596;2022-10-16T10:55:20;19.90;99.90
6738;DHT22;3406;49.902;8.596;2022-10-16T10:58:08;19.80;99.90
6738;DHT22;3406;49.902;8.596;2022-10-16T11:00:45;19.80;99.90
6738;DHT22;3406;49.902;8.596;2022-10-16T11:03:31;19.70;99.90
6738;DHT22;3406;49.902;8.596;2022-10-16T11:06:01;19.80;99.90
6738;DHT22;3406;49.902;8.596;2022-10-16T11:08:35;19.90;99.90
6738;DHT22;3406;49.902;8.596;2022-10-16T11:11:10;19.90;99.90
6738;DHT22;3406;49.902;8.596;2022-10-16T11:13:44;20.00;99.90
6738;DHT22;3406;49.902;8.596;2022-10-16T11:16:17;20.10;99.90
6738;DHT22;3406;49.902;8.596;2022-10-16T11:18:48;20.20;99.90
6738;DHT22;3406;49.902;8.596;2022-10-16T11:21:19;20.20;99.90
6738;DHT22;3406;49.902;8.596;2022-10-16T11:23:53;20.20;99.90
6738;DHT22;3406;49.902;8.596;2022-10-16T11:26:24;20.30;99.90
6738;DHT22;3406;49.902;8.596;2022-10-16T11:28:53;20.40;99.90
6738;DHT22;3406;49.902;8.596;2022-10-16T11:31:26;20.50;99.90
6738;DHT22;3406;49.902;8.596;2022-10-16T11:34:01;20.50;99.90
6738;DHT22;3406;49.902;8.596;2022-10-16T11:36:35;20.50;99.90
6738;DHT22;3406;49.902;8.596;2022-10-16T11:39:11;20.50;99.90
6738;DHT22;3406;49.902;8.596;2022-10-16T11:41:47;20.50;99.90
6738;DHT22;3406;49.902;8.596;2022-10-16T11:44:23;20.50;99.90
6738;DHT22;3406;49.902;8.596;2022-10-16T11:47:11;20.50;99.90
6738;DHT22;3406;49.902;8.596;2022-10-16T11:49:40;20.70;99.90
6738;DHT22;3406;49.902;8.596;2022-10-16T11:52:12;20.70;99.90
6738;DHT22;3406;49.902;8.596;2022-10-16T11:54:47;20.90;99.90
6738;DHT22;3406;49.902;8.596;2022-10-16T11:57:18;20.90;99.90
6738;DHT22;3406;49.902;8.596;2022-10-16T11:59:50;21.00;99.90
6738;DHT22;3406;49.902;8.596;2022-10-16T12:02:44;20.90;99.90
6738;DHT22;3406;49.902;8.596;2022-10-16T12:05:23;20.90;99.90
6738;DHT22;3406;49.902;8.596;2022-10-16T12:08:00;20.80;99.90
6738;DHT22;3406;49.902;8.596;2022-10-16T12:10:30;20.90;99.90
6738;DHT22;3406;49.902;8.596;2022-10-16T12:13:02;20.90;99.90
6738;DHT22;3406;49.902;8.596;2022-10-16T12:15:31;20.90;99.90
6738;DHT22;3406;49.902;8.596;2022-10-16T12:17:58;20.90;99.90
6738;DHT22;3406;49.902;8.596;2022-10-16T12:20:28;20.80;99.90
6738;DHT22;3406;49.902;8.596;2022-10-16T12:22:59;20.90;99.90
6738;DHT22;3406;49.902;8.596;2022-10-16T12:25:29;20.90;99.90
6738;DHT22;3406;49.902;8.596;2022-10-16T12:28:01;20.90;99.90
6738;DHT22;3406;49.902;8.596;2022-10-16T12:30:31;21.00;99.90
6738;DHT22;3406;49.902;8.596;2022-10-16T12:33:00;21.00;99.90
6738;DHT22;3406;49.902;8.596;2022-10-16T12:35:30;21.10;99.90
6738;DHT22;3406;49.902;8.596;2022-10-16T12:38:11;21.10;99.90
6738;DHT22;3406;49.902;8.596;2022-10-16T12:40:43;21.10;99.90
6738;DHT22;3406;49.902;8.596;2022-10-16T12:43:12;21.10;99.90
6738;DHT22;3406;49.902;8.596;2022-10-16T12:45:39;21.10;99.90
6738;DHT22;3406;49.902;8.596;2022-10-16T12:48:20;21.10;99.90
6738;DHT22;3406;49.902;8.596;2022-10-16T12:50:47;21.10;99.90
6738;DHT22;3406;49.902;8.596;2022-10-16T12:53:19;21.00;99.90
6738;DHT22;3406;49.902;8.596;2022-10-16T12:55:55;21.00;99.90
6738;DHT22;3406;49.902;8.596;2022-10-16T12:58:37;21.00;99.90
6738;DHT22;3406;49.902;8.596;2022-10-16T13:01:17;20.90;99.90
6738;DHT22;3406;49.902;8.596;2022-10-16T13:06:50;21.00;99.90
6738;DHT22;3406;49.902;8.596;2022-10-16T13:09:37;21.00;99.90
6738;DHT22;3406;49.902;8.596;2022-10-16T13:12:42;21.00;99.90
6738;DHT22;3406;49.902;8.596;2022-10-16T13:15:22;21.10;99.90
6738;DHT22;3406;49.902;8.596;2022-10-16T13:17:58;21.10;99.90
6738;DHT22;3406;49.902;8.596;2022-10-16T13:20:32;21.10;99.90
6738;DHT22;3406;49.902;8.596;2022-10-16T13:23:06;21.10;99.90
6738;DHT22;3406;49.902;8.596;2022-10-16T13:25:48;21.10;99.90
6738;DHT22;3406;49.902;8.596;2022-10-16T13:28:29;21.10;99.90
6738;DHT22;3406;49.902;8.596;2022-10-16T13:30:58;21.10;99.90
6738;DHT22;3406;49.902;8.596;2022-10-16T13:33:30;21.10;99.90
6738;DHT22;3406;49.902;8.596;2022-10-16T13:35:58;21.10;99.90
6738;DHT22;3406;49.902;8.596;2022-10-16T13:38:26;21.10;99.90
6738;DHT22;3406;49.902;8.596;2022-10-16T13:40:55;21.20;99.90
6738;DHT22;3406;49.902;8.596;2022-10-16T13:43:26;21.20;99.90
6738;DHT22;3406;49.902;8.596;2022-10-16T13:45:55;21.20;99.90
6738;DHT22;3406;49.902;8.596;2022-10-16T13:48:22;21.20;99.90
6738;DHT22;3406;49.902;8.596;2022-10-16T13:51:03;21.20;99.90
6738;DHT22;3406;49.902;8.596;2022-10-16T13:53:32;21.20;99.90
6738;DHT22;3406;49.902;8.596;2022-10-16T13:55:59;21.20;99.90
6738;DHT22;3406;49.902;8.596;2022-10-16T13:58:27;21.20;99.90
6738;DHT22;3406;49.902;8.596;2022-10-16T14:00:56;21.20;99.90
6738;DHT22;3406;49.902;8.596;2022-10-16T14:03:25;21.20;99.90
6738;DHT22;3406;49.902;8.596;2022-10-16T14:05:54;21.10;99.90
6738;DHT22;3406;49.902;8.596;2022-10-16T14:08:22;21.10;99.90
6738;DHT22;3406;49.902;8.596;2022-10-16T14:10:52;21.10;99.90
6738;DHT22;3406;49.902;8.596;2022-10-16T14:13:26;21.10;99.90
6738;DHT22;3406;49.902;8.596;2022-10-16T14:15:55;21.10;99.90
6738;DHT22;3406;49.902;8.596;2022-10-16T14:18:25;21.00;99.90
6738;DHT22;3406;49.902;8.596;2022-10-16T14:20:53;21.00;99.90
6738;DHT22;3406;49.902;8.596;2022-10-16T14:23:22;21.00;99.90
6738;DHT22;3406;49.902;8.596;2022-10-16T14:25:51;21.00;99.90
6738;DHT22;3406;49.902;8.596;2022-10-16T14:28:21;21.00;99.90
6738;DHT22;3406;49.902;8.596;2022-10-16T14:30:52;21.10;99.90
6738;DHT22;3406;49.902;8.596;2022-10-16T14:33:23;21.10;99.90
6738;DHT22;3406;49.902;8.596;2022-10-16T14:36:02;21.20;99.90
6738;DHT22;3406;49.902;8.596;2022-10-16T14:38:30;21.10;99.90
6738;DHT22;3406;49.902;8.596;2022-10-16T14:40:58;21.10;99.90
6738;DHT22;3406;49.902;8.596;2022-10-16T14:43:31;21.10;99.90
6738;DHT22;3406;49.902;8.596;2022-10-16T14:45:58;21.10;99.90
6738;DHT22;3406;49.902;8.596;2022-10-16T14:48:26;21.10;99.90
6738;DHT22;3406;49.902;8.596;2022-10-16T14:50:53;21.10;99.90
6738;DHT22;3406;49.902;8.596;2022-10-16T14:53:20;21.10;99.90
6738;DHT22;3406;49.902;8.596;2022-10-16T14:55:47;21.10;99.90
6738;DHT22;3406;49.902;8.596;2022-10-16T14:58:15;21.10;99.90
6738;DHT22;3406;49.902;8.596;2022-10-16T15:00:43;21.10;99.90
6738;DHT22;3406;49.902;8.596;2022-10-16T15:03:10;21.10;99.90
6738;DHT22;3406;49.902;8.596;2022-10-16T15:05:38;21.10;99.90
6738;DHT22;3406;49.902;8.596;2022-10-16T15:08:04;21.10;99.90
6738;DHT22;3406;49.902;8.596;2022-10-16T15:10:37;21.10;99.90
6738;DHT22;3406;49.902;8.596;2022-10-16T15:13:04;21.10;99.90
6738;DHT22;3406;49.902;8.596;2022-10-16T15:15:33;21.10;99.90
6738;DHT22;3406;49.902;8.596;2022-10-16T15:18:01;21.20;99.90
6738;DHT22;3406;49.902;8.596;2022-10-16T15:20:29;21.20;99.90
6738;DHT22;3406;49.902;8.596;2022-10-16T15:23:01;21.20;99.90
6738;DHT22;3406;49.902;8.596;2022-10-16T15:25:34;21.30;99.90
6738;DHT22;3406;49.902;8.596;2022-10-16T15:28:02;21.30;99.90
6738;DHT22;3406;49.902;8.596;2022-10-16T15:30:29;21.30;99.90
6738;DHT22;3406;49.902;8.596;2022-10-16T15:32:56;21.30;99.90
6738;DHT22;3406;49.902;8.596;2022-10-16T15:35:23;21.30;99.90
6738;DHT22;3406;49.902;8.596;2022-10-16T15:37:50;21.30;99.90
6738;DHT22;3406;49.902;8.596;2022-10-16T15:40:19;21.30;99.90
6738;DHT22;3406;49.902;8.596;2022-10-16T15:42:46;21.30;99.90
6738;DHT22;3406;49.902;8.596;2022-10-16T15:45:14;21.20;99.90
6738;DHT22;3406;49.902;8.596;2022-10-16T15:47:41;21.20;99.90
6738;DHT22;3406;49.902;8.596;2022-10-16T15:50:10;21.10;99.90
6738;DHT22;3406;49.902;8.596;2022-10-16T15:52:37;21.10;99.90
6738;DHT22;3406;49.902;8.596;2022-10-16T15:55:05;21.10;99.90
6738;DHT22;3406;49.902;8.596;2022-10-16T15:57:33;21.20;99.90
6738;DHT22;3406;49.902;8.596;2022-10-16T15:59:59;21.10;99.90
6738;DHT22;3406;49.902;8.596;2022-10-16T16:02:26;21.10;99.90
6738;DHT22;3406;49.902;8.596;2022-10-16T16:04:53;21.10;99.90
6738;DHT22;3406;49.902;8.596;2022-10-16T16:07:19;21.00;99.90
6738;DHT22;3406;49.902;8.596;2022-10-16T16:09:46;20.90;99.90
6738;DHT22;3406;49.902;8.596;2022-10-16T16:12:13;20.90;99.90
6738;DHT22;3406;49.902;8.596;2022-10-16T16:14:41;20.80;99.90
6738;DHT22;3406;49.902;8.596;2022-10-16T16:17:08;20.70;99.90
6738;DHT22;3406;49.902;8.596;2022-10-16T16:19:35;20.70;99.90
6738;DHT22;3406;49.902;8.596;2022-10-16T16:22:01;20.60;99.90